createdAt,value
2018-01-18T00:00:48.006Z,4.57
2018-01-18T00:03:15.550Z,5.23
2018-01-18T00:05:43.066Z,5.17
2018-01-18T00:08:10.702Z,5.20
2018-01-18T00:10:38.399Z,5.00
2018-01-18T00:13:06.135Z,4.07
2018-01-18T00:15:33.933Z,4.40
2018-01-18T00:18:01.551Z,7.77
2018-01-18T00:20:29.270Z,5.27
2018-01-18T00:22:56.888Z,6.10
2018-01-18T00:25:24.442Z,5.23
2018-01-18T00:27:51.970Z,7.50
2018-01-18T00:30:19.796Z,6.17
2018-01-18T00:32:47.313Z,6.40
2018-01-18T00:35:14.894Z,8.53
2018-01-18T00:37:42.550Z,6.77
2018-01-18T00:40:10.078Z,7.20
2018-01-18T00:42:37.784Z,7.17
2018-01-18T00:45:05.318Z,6.00
2018-01-18T00:47:33.023Z,9.50
2018-01-18T00:50:00.635Z,9.60
2018-01-18T00:52:28.456Z,7.83
2018-01-18T00:54:55.998Z,8.23
2018-01-18T00:57:23.695Z,10.13
2018-01-18T00:59:51.234Z,7.23
2018-01-18T01:02:18.759Z,7.30
2018-01-18T01:04:46.334Z,8.63
2018-01-18T01:07:13.874Z,8.33
2018-01-18T01:09:41.394Z,6.77
2018-01-18T01:12:08.999Z,7.13
2018-01-18T01:14:36.582Z,7.37
2018-01-18T01:17:04.142Z,6.93
2018-01-18T01:19:31.661Z,6.70
2018-01-18T01:21:59.233Z,4.97
2018-01-18T01:24:26.793Z,5.60
2018-01-18T01:26:54.318Z,6.37
2018-01-18T01:29:21.862Z,5.53
2018-01-18T01:31:49.386Z,5.23
2018-01-18T01:34:16.918Z,5.20
2018-01-18T01:36:44.478Z,5.43
2018-01-18T01:39:12.058Z,7.60
2018-01-18T01:41:39.582Z,6.07
2018-01-18T01:44:07.112Z,7.57
2018-01-18T01:46:34.683Z,6.00
2018-01-18T01:49:02.214Z,6.43
2018-01-18T01:51:29.978Z,4.77
2018-01-18T01:53:57.505Z,4.77
2018-01-18T01:56:25.114Z,5.77
2018-01-18T01:58:52.647Z,8.23
2018-01-18T02:01:20.191Z,5.53
2018-01-18T02:03:47.757Z,6.70
2018-01-18T02:06:15.484Z,5.77
2018-01-18T02:08:43.034Z,5.83
2018-01-18T02:11:10.820Z,6.17
2018-01-18T02:13:38.345Z,6.70
2018-01-18T02:16:06.057Z,6.93
2018-01-18T02:18:33.674Z,5.87
2018-01-18T02:21:01.235Z,6.17
2018-01-18T02:23:28.912Z,6.30
2018-01-18T02:25:56.530Z,7.90
2018-01-18T02:28:24.091Z,6.53
2018-01-18T02:30:51.606Z,6.67
2018-01-18T02:33:19.145Z,6.27
2018-01-18T02:35:46.670Z,6.50
2018-01-18T02:38:14.257Z,6.97
2018-01-18T02:40:42.034Z,6.93
2018-01-18T02:43:09.550Z,6.67
2018-01-18T02:45:37.082Z,6.57
2018-01-18T02:48:04.626Z,7.73
2018-01-18T02:50:32.158Z,8.83
2018-01-18T02:52:59.885Z,9.47
2018-01-18T02:55:27.463Z,10.50
2018-01-18T02:57:54.995Z,7.93
2018-01-18T03:00:22.530Z,9.13
2018-01-18T03:02:50.066Z,7.50
2018-01-18T03:05:17.711Z,9.03
2018-01-18T03:07:45.242Z,7.70
2018-01-18T03:10:12.807Z,7.83
2018-01-18T03:12:40.455Z,7.97
2018-01-18T03:15:07.990Z,7.87
2018-01-18T03:17:35.511Z,8.33
2018-01-18T03:20:03.062Z,8.53
2018-01-18T03:22:30.589Z,7.87
2018-01-18T03:24:58.252Z,6.67
2018-01-18T03:27:25.934Z,7.77
2018-01-18T03:29:53.506Z,7.97
2018-01-18T03:32:21.206Z,7.10
2018-01-18T03:34:48.823Z,6.23
2018-01-18T03:37:16.366Z,8.80
2018-01-18T03:39:43.962Z,7.90
2018-01-18T03:42:11.502Z,7.00
2018-01-18T03:44:39.194Z,5.93
2018-01-18T03:47:06.762Z,11.87
2018-01-18T03:49:34.299Z,6.50
2018-01-18T03:52:01.818Z,7.63
2018-01-18T03:54:29.469Z,8.07
2018-01-18T03:56:57.183Z,6.30
2018-01-18T03:59:24.717Z,5.77
2018-01-18T04:01:52.319Z,6.10
2018-01-18T04:04:19.894Z,8.70
2018-01-18T04:06:47.418Z,8.03
2018-01-18T04:09:15.176Z,7.10
2018-01-18T04:11:42.892Z,8.03
2018-01-18T04:14:10.709Z,10.83
2018-01-18T04:16:38.331Z,11.23
2018-01-18T04:19:06.220Z,9.47
2018-01-18T04:21:33.814Z,7.07
2018-01-18T04:24:01.581Z,6.83
2018-01-18T04:26:29.199Z,7.17
2018-01-18T04:28:56.734Z,9.83
2018-01-18T04:31:24.258Z,6.90
2018-01-18T04:33:51.794Z,9.23
2018-01-18T04:36:19.369Z,6.93
2018-01-18T04:38:46.918Z,10.43
2018-01-18T04:41:14.444Z,8.77
2018-01-18T04:43:42.122Z,8.10
2018-01-18T04:46:09.666Z,8.47
2018-01-18T04:48:37.195Z,8.73
2018-01-18T04:51:04.786Z,18.43
2018-01-18T04:53:32.309Z,8.30
2018-01-18T04:55:59.950Z,12.17
2018-01-18T04:58:27.729Z,9.77
2018-01-18T05:00:55.330Z,13.13
2018-01-18T05:03:22.906Z,13.50
2018-01-18T05:05:50.520Z,13.33
2018-01-18T05:08:18.099Z,16.20
2018-01-18T05:10:45.860Z,19.27
2018-01-18T05:13:13.575Z,15.77
2018-01-18T05:15:41.110Z,19.40
2018-01-18T05:18:08.707Z,12.60
2018-01-18T05:20:36.427Z,24.83
2018-01-18T05:23:03.974Z,13.67
2018-01-18T05:25:31.509Z,10.90
2018-01-18T05:27:59.051Z,11.10
2018-01-18T05:30:26.588Z,13.00
2018-01-18T05:32:54.131Z,10.40
2018-01-18T05:35:21.734Z,9.87
2018-01-18T05:37:49.374Z,15.40
2018-01-18T05:40:16.894Z,9.93
2018-01-18T05:42:44.414Z,11.67
2018-01-18T05:45:11.957Z,12.60
2018-01-18T05:47:39.485Z,10.90
2018-01-18T05:50:07.042Z,11.43
2018-01-18T05:52:34.566Z,9.53
2018-01-18T05:55:02.263Z,10.63
2018-01-18T05:57:30.079Z,10.83
2018-01-18T05:59:57.623Z,9.73
2018-01-18T06:02:25.366Z,12.17
2018-01-18T06:04:52.898Z,10.93
2018-01-18T06:07:20.550Z,9.00
2018-01-18T06:09:48.239Z,9.50
2018-01-18T06:12:15.856Z,9.30
2018-01-18T06:14:43.512Z,13.13
2018-01-18T06:17:11.042Z,11.93
2018-01-18T06:19:38.611Z,8.60
2018-01-18T06:22:06.562Z,11.03
2018-01-18T06:24:34.095Z,8.73
2018-01-18T06:27:01.634Z,14.80
2018-01-18T06:29:29.303Z,8.87
2018-01-18T06:31:56.872Z,10.03
2018-01-18T06:34:24.456Z,8.80
2018-01-18T06:36:52.006Z,10.47
2018-01-18T06:39:19.533Z,11.57
2018-01-18T06:41:47.069Z,8.70
2018-01-18T06:44:14.602Z,11.23
2018-01-18T06:46:42.433Z,14.87
2018-01-18T06:49:09.974Z,15.07
2018-01-18T06:51:37.560Z,12.27
2018-01-18T06:54:05.187Z,12.07
2018-01-18T06:56:32.806Z,9.10
2018-01-18T06:59:00.346Z,9.27
2018-01-18T07:01:27.886Z,37.40
2018-01-18T07:03:55.562Z,12.43
2018-01-18T07:06:23.183Z,15.63
2018-01-18T07:08:50.726Z,13.17
2018-01-18T07:11:18.269Z,14.33
2018-01-18T07:13:45.938Z,15.43
2018-01-18T07:16:13.552Z,13.97
2018-01-18T07:18:41.151Z,15.53
2018-01-18T07:21:08.807Z,19.50
2018-01-18T07:23:36.350Z,17.13
2018-01-18T07:26:04.020Z,13.03
2018-01-18T07:28:31.836Z,12.93
2018-01-18T07:30:59.411Z,10.93
2018-01-18T07:33:27.073Z,10.17
2018-01-18T07:35:54.594Z,10.07
2018-01-18T07:38:22.186Z,13.60
2018-01-18T07:40:49.737Z,9.47
2018-01-18T07:43:17.262Z,14.40
2018-01-18T07:45:44.817Z,15.80
2018-01-18T07:48:12.483Z,18.40
2018-01-18T07:50:40.050Z,9.57
2018-01-18T07:53:07.695Z,24.07
2018-01-18T07:55:35.306Z,16.10
2018-01-18T07:58:02.845Z,29.83
2018-01-18T08:00:30.398Z,16.73
2018-01-18T08:03:03.570Z,9.63
2018-01-18T08:05:31.113Z,17.47
2018-01-18T08:07:58.688Z,36.73
2018-01-18T08:10:26.457Z,15.17
2018-01-18T08:12:54.010Z,32.53
2018-01-18T08:15:21.550Z,30.20
2018-01-18T08:17:49.144Z,19.17
2018-01-18T08:20:16.679Z,21.10
2018-01-18T08:22:44.227Z,19.57
2018-01-18T08:25:11.866Z,18.63
2018-01-18T08:27:39.587Z,38.20
2018-01-18T08:30:07.142Z,15.40
2018-01-18T08:32:34.819Z,16.27
2018-01-18T08:35:02.402Z,17.30
2018-01-18T08:37:29.942Z,79.13
2018-01-18T08:39:57.576Z,32.27
2018-01-18T08:42:25.481Z,16.90
2018-01-18T08:44:53.002Z,6.77
2018-01-18T08:47:20.690Z,144.33
2018-01-18T08:49:48.221Z,10.83
2018-01-18T08:52:15.802Z,5.50
2018-01-18T08:54:43.478Z,7.43
2018-01-18T08:57:11.002Z,8.60
2018-01-18T08:59:38.543Z,20.97
2018-01-18T09:02:06.143Z,19.77
2018-01-18T09:04:33.854Z,23.60
2018-01-18T09:07:01.393Z,32.33
2018-01-18T09:09:29.091Z,53.47
2018-01-18T09:11:56.617Z,8.57
2018-01-18T09:14:24.134Z,9.37
2018-01-18T09:16:51.684Z,23.57
2018-01-18T09:19:19.354Z,19.33
2018-01-18T09:21:47.080Z,68.73
2018-01-18T09:24:14.692Z,29.97
2018-01-18T09:26:42.315Z,9.90
2018-01-18T09:29:09.862Z,25.63
2018-01-18T09:31:37.402Z,78.43
2018-01-18T09:34:04.985Z,16.13
2018-01-18T09:36:32.518Z,21.37
2018-01-18T09:39:00.047Z,15.90
2018-01-18T09:41:27.592Z,44.47
2018-01-18T09:43:55.309Z,58.57
2018-01-18T09:46:22.882Z,17.93
2018-01-18T09:48:50.418Z,12.70
2018-01-18T09:51:18.091Z,19.67
2018-01-18T09:53:45.618Z,6.10
2018-01-18T09:56:13.212Z,7.33
2018-01-18T09:58:40.747Z,7.90
2018-01-18T10:01:08.274Z,9.63
2018-01-18T10:03:35.846Z,5.93
2018-01-18T10:06:03.370Z,6.60
2018-01-18T10:08:30.918Z,6.87
2018-01-18T10:10:58.506Z,6.30
2018-01-18T10:13:26.030Z,8.17
2018-01-18T10:15:53.630Z,11.13
2018-01-18T10:18:21.154Z,9.07
2018-01-18T10:20:48.780Z,6.90
2018-01-18T10:23:16.323Z,10.43
2018-01-18T10:25:43.870Z,10.67
2018-01-18T10:28:11.652Z,8.23
2018-01-18T10:30:39.179Z,7.73
2018-01-18T10:33:06.717Z,7.47
2018-01-18T10:35:34.504Z,6.90
2018-01-18T10:38:02.116Z,12.97
2018-01-18T10:40:29.692Z,10.40
2018-01-18T10:42:57.257Z,13.67
2018-01-18T10:45:24.802Z,15.30
2018-01-18T10:47:52.334Z,5.47
2018-01-18T10:50:19.883Z,7.87
2018-01-18T10:52:47.422Z,21.90
2018-01-18T10:55:15.246Z,17.03
2018-01-18T10:57:42.770Z,8.77
2018-01-18T11:00:10.307Z,9.57
2018-01-18T11:02:38.100Z,48.67
2018-01-18T11:05:05.638Z,5.93
2018-01-18T11:07:33.173Z,8.37
2018-01-18T11:10:00.857Z,6.50
2018-01-18T11:12:28.511Z,7.40
2018-01-18T11:14:56.291Z,7.33
2018-01-18T11:17:23.907Z,7.30
2018-01-18T11:19:51.450Z,16.00
2018-01-18T11:22:18.993Z,9.53
2018-01-18T11:24:46.573Z,8.23
2018-01-18T11:27:14.158Z,55.77
2018-01-18T11:29:41.738Z,14.97
2018-01-18T11:32:09.514Z,18.27
2018-01-18T11:34:37.059Z,22.40
2018-01-18T11:37:04.849Z,12.13
2018-01-18T11:39:32.434Z,33.17
2018-01-18T11:42:00.159Z,18.00
2018-01-18T11:44:27.811Z,20.50
2018-01-18T11:46:55.523Z,16.30
2018-01-18T11:49:23.054Z,25.03
2018-01-18T11:51:50.577Z,7.23
2018-01-18T11:54:18.129Z,40.23
2018-01-18T11:56:45.857Z,33.03
2018-01-18T11:59:13.443Z,34.20
2018-01-18T12:01:40.974Z,40.83
2018-01-18T12:04:08.509Z,74.77
2018-01-18T12:06:36.051Z,9.27
2018-01-18T12:09:03.700Z,46.20
2018-01-18T12:11:31.402Z,39.30
2018-01-18T12:13:58.925Z,8.60
2018-01-18T12:16:26.490Z,10.60
2018-01-18T12:18:54.254Z,19.57
2018-01-18T12:21:21.870Z,9.43
2018-01-18T12:23:49.411Z,11.93
2018-01-18T12:26:16.997Z,33.23
2018-01-18T12:28:44.593Z,47.50
2018-01-18T12:31:12.233Z,27.77
2018-01-18T12:33:39.775Z,38.37
2018-01-18T12:36:07.376Z,15.63
2018-01-18T12:38:34.999Z,27.67
2018-01-18T12:41:02.538Z,9.40
2018-01-18T12:43:30.061Z,7.50
2018-01-18T12:45:57.658Z,24.50
2018-01-18T12:48:25.195Z,12.97
2018-01-18T12:50:52.883Z,6.30
2018-01-18T12:53:20.606Z,7.37
2018-01-18T12:55:48.126Z,4.70
2018-01-18T12:58:15.664Z,11.90
2018-01-18T13:00:43.186Z,9.10
2018-01-18T13:03:10.763Z,13.50
2018-01-18T13:05:38.305Z,6.57
2018-01-18T13:08:05.830Z,5.93
2018-01-18T13:10:33.522Z,9.63
2018-01-18T13:13:01.046Z,8.20
2018-01-18T13:15:28.859Z,27.97
2018-01-18T13:17:56.401Z,20.27
2018-01-18T13:20:23.986Z,11.03
2018-01-18T13:22:51.568Z,12.53
2018-01-18T13:25:19.235Z,15.43
2018-01-18T13:27:46.771Z,8.00
2018-01-18T13:30:14.302Z,11.23
2018-01-18T13:32:41.987Z,6.80
2018-01-18T13:35:09.560Z,6.17
2018-01-18T13:37:37.133Z,7.00
2018-01-18T13:40:04.662Z,7.20
2018-01-18T13:42:32.203Z,104.77
2018-01-18T13:44:59.742Z,69.57
2018-01-18T13:47:27.292Z,71.63
2018-01-18T13:49:55.008Z,10.77
2018-01-18T13:52:22.533Z,13.87
2018-01-18T13:54:50.158Z,16.97
2018-01-18T13:57:17.869Z,12.60
2018-01-18T13:59:45.684Z,39.10
2018-01-18T14:02:13.298Z,14.13
2018-01-18T14:04:40.846Z,21.83
2018-01-18T14:07:08.386Z,16.67
2018-01-18T14:09:35.921Z,11.30
2018-01-18T14:12:03.518Z,7.13
2018-01-18T14:14:31.286Z,9.03
2018-01-18T14:16:58.977Z,14.97
2018-01-18T14:19:26.512Z,9.93
2018-01-18T14:21:54.043Z,31.90
2018-01-18T14:24:21.594Z,24.40
2018-01-18T14:26:49.130Z,39.07
2018-01-18T14:29:16.892Z,30.03
2018-01-18T14:31:44.430Z,20.43
2018-01-18T14:34:11.966Z,6.57
2018-01-18T14:36:39.514Z,46.83
2018-01-18T14:39:07.110Z,8.37
2018-01-18T14:41:34.654Z,21.83
2018-01-18T14:44:02.186Z,6.87
2018-01-18T14:46:29.915Z,7.87
2018-01-18T14:48:57.465Z,13.60
2018-01-18T14:51:24.995Z,16.80
2018-01-18T14:53:52.562Z,57.57
2018-01-18T14:56:20.102Z,20.87
2018-01-18T14:58:47.657Z,98.83
2018-01-18T15:01:15.193Z,37.33
2018-01-18T15:03:42.771Z,23.53
2018-01-18T15:06:10.459Z,14.50
2018-01-18T15:08:37.982Z,13.07
2018-01-18T15:11:05.584Z,9.83
2018-01-18T15:13:33.212Z,13.43
2018-01-18T15:16:01.030Z,14.47
2018-01-18T15:18:28.557Z,12.70
2018-01-18T15:20:56.269Z,9.03
2018-01-18T15:23:23.846Z,7.53
2018-01-18T15:25:51.366Z,8.97
2018-01-18T15:28:19.118Z,15.67
2018-01-18T15:30:46.663Z,22.23
2018-01-18T15:33:14.237Z,23.90
2018-01-18T15:35:41.766Z,17.90
2018-01-18T15:38:09.370Z,24.40
2018-01-18T15:40:36.906Z,17.80
2018-01-18T15:43:04.539Z,22.70
2018-01-18T15:45:32.103Z,17.77
2018-01-18T15:47:59.861Z,17.50
2018-01-18T15:50:27.578Z,14.80
2018-01-18T15:52:55.101Z,10.40
2018-01-18T15:55:22.686Z,17.10
2018-01-18T15:57:50.503Z,20.60
2018-01-18T16:00:18.154Z,18.40
2018-01-18T16:02:46.069Z,34.57
2018-01-18T16:05:13.598Z,14.70
2018-01-18T16:07:41.138Z,16.33
2018-01-18T16:10:08.670Z,15.43
2018-01-18T16:12:36.262Z,12.63
2018-01-18T16:15:03.958Z,25.00
2018-01-18T16:17:31.487Z,25.63
2018-01-18T16:19:59.293Z,17.00
2018-01-18T16:22:27.011Z,82.07
2018-01-18T16:24:54.679Z,17.50
2018-01-18T16:27:22.449Z,12.53
2018-01-18T16:29:49.982Z,21.47
2018-01-18T16:32:17.540Z,11.70
2018-01-18T16:34:45.301Z,10.43
2018-01-18T16:37:12.879Z,22.33
2018-01-18T16:39:40.469Z,12.63
2018-01-18T16:42:08.258Z,27.10
2018-01-18T16:44:35.790Z,10.20
2018-01-18T16:47:03.325Z,22.10
2018-01-18T16:49:30.984Z,22.37
2018-01-18T16:51:58.554Z,54.10
2018-01-18T16:54:26.098Z,31.60
2018-01-18T16:56:53.674Z,62.40
2018-01-18T16:59:21.201Z,12.33
2018-01-18T17:01:48.899Z,10.57
2018-01-18T17:04:16.430Z,19.07
2018-01-18T17:06:44.073Z,14.70
2018-01-18T17:09:11.753Z,19.57
2018-01-18T17:11:39.277Z,14.07
2018-01-18T17:14:06.821Z,17.07
2018-01-18T17:16:34.357Z,16.03
2018-01-18T17:19:01.950Z,32.60
2018-01-18T17:21:29.739Z,26.67
2018-01-18T17:23:57.388Z,36.27
2018-01-18T17:26:24.941Z,11.63
2018-01-18T17:28:52.485Z,13.37
2018-01-18T17:31:20.110Z,11.27
2018-01-18T17:33:47.854Z,21.33
2018-01-18T17:36:15.562Z,33.57
2018-01-18T17:38:43.270Z,14.10
2018-01-18T17:41:10.841Z,18.27
2018-01-18T17:43:38.600Z,14.03
2018-01-18T17:46:06.270Z,13.97
2018-01-18T17:48:33.803Z,19.57
2018-01-18T17:51:01.378Z,17.90
2018-01-18T17:53:28.958Z,16.47
2018-01-18T17:55:56.486Z,9.53
2018-01-18T17:58:24.066Z,11.23
2018-01-18T18:00:51.732Z,11.37
2018-01-18T18:03:19.299Z,10.03
2018-01-18T18:05:46.850Z,14.37
2018-01-18T18:08:14.434Z,15.87
2018-01-18T18:10:41.991Z,10.67
2018-01-18T18:13:09.672Z,12.00
2018-01-18T18:15:37.245Z,15.87
2018-01-18T18:18:04.955Z,12.43
2018-01-18T18:20:32.562Z,11.27
2018-01-18T18:23:00.187Z,15.10
2018-01-18T18:25:27.717Z,15.03
2018-01-18T18:27:55.288Z,7.97
2018-01-18T18:30:22.833Z,26.73
2018-01-18T18:32:50.414Z,25.47
2018-01-18T18:35:17.942Z,37.67
2018-01-18T18:37:45.482Z,13.20
2018-01-18T18:40:13.029Z,24.33
2018-01-18T18:42:40.566Z,54.23
2018-01-18T18:45:08.412Z,15.97
2018-01-18T18:47:35.987Z,13.63
2018-01-18T18:50:03.610Z,23.00
2018-01-18T18:52:31.299Z,26.47
2018-01-18T18:54:58.845Z,15.83
2018-01-18T18:57:26.440Z,20.43
2018-01-18T18:59:53.974Z,49.77
2018-01-18T19:02:21.506Z,17.27
2018-01-18T19:04:49.077Z,20.97
2018-01-18T19:07:16.626Z,21.83
2018-01-18T19:09:44.190Z,14.00
2018-01-18T19:12:11.940Z,14.17
2018-01-18T19:14:39.514Z,14.37
2018-01-18T19:17:07.050Z,36.90
2018-01-18T19:19:34.609Z,51.43
2018-01-18T19:22:02.315Z,33.53
2018-01-18T19:24:29.845Z,38.97
2018-01-18T19:26:57.386Z,48.07
2018-01-18T19:29:24.918Z,26.87
2018-01-18T19:31:52.682Z,15.87
2018-01-18T19:34:20.302Z,42.40
2018-01-18T19:36:47.918Z,32.50
2018-01-18T19:39:15.458Z,22.57
2018-01-18T19:41:42.990Z,25.37
2018-01-18T19:44:10.540Z,51.70
2018-01-18T19:46:38.105Z,24.23
2018-01-18T19:49:05.770Z,16.57
2018-01-18T19:51:33.423Z,38.90
2018-01-18T19:54:00.958Z,27.20
2018-01-18T19:56:28.794Z,28.47
2018-01-18T19:58:56.367Z,46.73
2018-01-18T20:01:24.055Z,25.53
2018-01-18T20:03:51.578Z,16.47
2018-01-18T20:06:19.115Z,22.37
2018-01-18T20:08:46.747Z,61.73
2018-01-18T20:11:14.282Z,112.20
2018-01-18T20:13:41.846Z,22.27
2018-01-18T20:16:09.511Z,36.67
2018-01-18T20:18:37.113Z,31.80
2018-01-18T20:21:04.651Z,26.27
2018-01-18T20:23:32.248Z,38.17
2018-01-18T20:25:59.793Z,25.10
2018-01-18T20:28:27.339Z,17.50
2018-01-18T20:30:54.901Z,22.73
2018-01-18T20:33:22.478Z,21.37
2018-01-18T20:35:50.147Z,25.77
2018-01-18T20:38:17.860Z,66.47
2018-01-18T20:40:45.402Z,71.03
2018-01-18T20:43:13.065Z,108.97
2018-01-18T20:45:40.599Z,140.07
2018-01-18T20:48:08.146Z,153.47
2018-01-18T20:50:35.686Z,94.87
2018-01-18T20:53:03.467Z,71.87
2018-01-18T20:55:31.004Z,87.40
2018-01-18T20:57:58.538Z,80.67
2018-01-18T21:00:26.221Z,79.77
2018-01-18T21:02:53.758Z,78.80
2018-01-18T21:05:21.297Z,49.97
2018-01-18T21:07:48.977Z,151.67
2018-01-18T21:10:16.581Z,198.53
2018-01-18T21:12:44.310Z,232.10
2018-01-18T21:15:11.938Z,196.00
2018-01-18T21:17:39.495Z,101.83
2018-01-18T21:20:07.246Z,119.03
2018-01-18T21:22:34.842Z,75.50
2018-01-18T21:25:02.379Z,71.03
2018-01-18T21:27:29.958Z,38.13
2018-01-18T21:29:57.482Z,38.30
2018-01-18T21:32:25.014Z,43.77
2018-01-18T21:34:52.572Z,44.27
2018-01-18T21:37:20.258Z,41.67
2018-01-18T21:39:47.908Z,37.43
2018-01-18T21:42:15.513Z,32.83
2018-01-18T21:44:43.094Z,29.70
2018-01-18T21:47:11.540Z,28.37
2018-01-18T21:49:39.070Z,46.40
2018-01-18T21:52:06.613Z,25.30
2018-01-18T21:54:34.165Z,38.90
2018-01-18T21:57:01.833Z,39.90
2018-01-18T21:59:29.550Z,35.83
2018-01-18T22:01:57.144Z,212.57
2018-01-18T22:04:24.685Z,75.23
2018-01-18T22:06:52.214Z,45.97
2018-01-18T22:09:19.758Z,43.90
2018-01-18T22:11:47.290Z,46.20
2018-01-18T22:14:14.830Z,59.37
2018-01-18T22:16:42.362Z,67.03
2018-01-18T22:19:09.930Z,65.90
2018-01-18T22:21:37.473Z,74.37
2018-01-18T22:24:05.019Z,63.30
2018-01-18T22:26:32.562Z,71.77
2018-01-18T22:29:00.101Z,57.03
2018-01-18T22:31:27.655Z,43.77
2018-01-18T22:33:55.187Z,65.23
2018-01-18T22:36:22.758Z,66.50
2018-01-18T22:38:50.322Z,53.77
2018-01-18T22:41:17.850Z,73.50
2018-01-18T22:43:45.427Z,68.43
2018-01-18T22:46:12.974Z,57.70
2018-01-18T22:48:40.526Z,86.17
2018-01-18T22:51:08.070Z,60.93
2018-01-18T22:53:35.642Z,41.77
2018-01-18T22:56:03.177Z,34.40
2018-01-18T22:58:30.710Z,25.77
2018-01-18T23:00:58.262Z,30.27
2018-01-18T23:03:25.798Z,21.47
2018-01-18T23:05:53.360Z,27.23
2018-01-18T23:08:20.889Z,14.87
2018-01-18T23:10:48.454Z,15.63
2018-01-18T23:13:15.982Z,13.13
2018-01-18T23:15:43.510Z,21.63
2018-01-18T23:18:11.050Z,16.50
2018-01-18T23:20:38.730Z,13.30
2018-01-18T23:23:06.267Z,11.43
2018-01-18T23:25:33.794Z,15.33
2018-01-18T23:28:01.378Z,10.77
2018-01-18T23:30:29.103Z,10.93
2018-01-18T23:32:56.818Z,11.10
2018-01-18T23:35:24.350Z,10.87
2018-01-18T23:37:51.886Z,19.90
2018-01-18T23:40:19.485Z,24.03
2018-01-18T23:42:47.090Z,30.43
2018-01-18T23:45:14.907Z,40.20
2018-01-18T23:47:42.441Z,119.53
2018-01-18T23:50:09.998Z,115.83
2018-01-18T23:52:37.553Z,198.43
2018-01-18T23:55:05.279Z,150.83
2018-01-18T23:57:32.899Z,113.77
